createdAt,value
2023-06-19T00:01:44.983Z,81.04
2023-06-19T00:04:11.522Z,80.96
2023-06-19T00:06:37.957Z,80.65
2023-06-19T00:09:04.401Z,80.62
2023-06-19T00:11:30.893Z,80.71
2023-06-19T00:13:57.341Z,80.57
2023-06-19T00:16:23.859Z,80.50
2023-06-19T00:18:50.397Z,80.45
2023-06-19T00:21:16.814Z,80.43
2023-06-19T00:23:43.262Z,80.32
2023-06-19T00:26:09.719Z,80.26
2023-06-19T00:28:36.228Z,80.25
2023-06-19T00:31:02.765Z,79.97
2023-06-19T00:33:29.186Z,79.81
2023-06-19T00:35:55.730Z,79.66
2023-06-19T00:38:22.187Z,79.70
2023-06-19T00:40:48.700Z,79.24
2023-06-19T00:43:15.120Z,79.19
2023-06-19T00:45:41.577Z,79.02
2023-06-19T00:48:08.145Z,79.01
2023-06-19T00:50:34.524Z,78.95
2023-06-19T00:53:00.994Z,78.90
2023-06-19T00:55:27.453Z,78.75
2023-06-19T00:57:53.933Z,78.86
2023-06-19T01:00:20.420Z,78.76
2023-06-19T01:02:46.935Z,78.77
2023-06-19T01:05:13.442Z,78.76
2023-06-19T01:07:39.888Z,78.85
2023-06-19T01:10:06.404Z,78.86
2023-06-19T01:12:32.836Z,78.89
2023-06-19T01:14:59.274Z,78.91
2023-06-19T01:17:25.932Z,78.92
2023-06-19T01:19:52.233Z,78.97
2023-06-19T01:22:18.664Z,79.24
2023-06-19T01:24:45.178Z,79.47
2023-06-19T01:27:11.539Z,79.76
2023-06-19T01:29:38.087Z,79.90
2023-06-19T01:32:04.500Z,80.04
2023-06-19T01:34:31.053Z,80.08
2023-06-19T01:36:57.542Z,80.30
2023-06-19T01:39:24.014Z,80.39
2023-06-19T01:41:50.437Z,80.44
2023-06-19T01:44:16.872Z,80.69
2023-06-19T01:46:43.510Z,80.78
2023-06-19T01:49:09.922Z,80.67
2023-06-19T01:51:36.388Z,80.65
2023-06-19T01:54:02.839Z,80.76
2023-06-19T01:56:29.246Z,80.86
2023-06-19T01:58:55.791Z,81.04
2023-06-19T02:01:22.228Z,81.17
2023-06-19T02:03:48.774Z,81.16
2023-06-19T02:06:15.196Z,81.23
2023-06-19T02:08:42.135Z,81.54
2023-06-19T02:11:08.668Z,81.77
2023-06-19T02:13:35.583Z,81.88
2023-06-19T02:16:01.760Z,81.91
2023-06-19T02:18:28.162Z,81.69
2023-06-19T02:20:54.697Z,81.59
2023-06-19T02:23:21.133Z,81.53
2023-06-19T02:25:47.537Z,81.64
2023-06-19T02:28:14.007Z,81.59
2023-06-19T02:30:40.458Z,81.66
2023-06-19T02:33:07.029Z,81.58
2023-06-19T02:35:33.426Z,81.65
2023-06-19T02:37:59.828Z,81.66
2023-06-19T02:40:26.648Z,81.74
2023-06-19T02:42:52.843Z,81.55
2023-06-19T02:45:19.364Z,81.43
2023-06-19T02:47:45.940Z,81.44
2023-06-19T02:50:12.415Z,81.40
2023-06-19T02:52:38.954Z,81.27
2023-06-19T02:55:05.496Z,81.53
2023-06-19T02:57:31.938Z,81.90
2023-06-19T02:59:58.449Z,81.99
2023-06-19T03:02:25.014Z,82.04
2023-06-19T03:04:51.428Z,82.12
2023-06-19T03:07:17.965Z,82.06
2023-06-19T03:09:44.382Z,81.89
2023-06-19T03:12:10.927Z,81.79
2023-06-19T03:14:37.478Z,82.00
2023-06-19T03:17:04.090Z,82.32
2023-06-19T03:19:30.458Z,82.38
2023-06-19T03:21:56.920Z,82.32
2023-06-19T03:24:23.458Z,82.43
2023-06-19T03:26:49.825Z,82.74
2023-06-19T03:29:16.258Z,82.94
2023-06-19T03:31:42.691Z,83.25
2023-06-19T03:34:09.122Z,83.40
2023-06-19T03:36:35.660Z,83.48
2023-06-19T03:39:02.216Z,83.82
2023-06-19T03:41:28.631Z,84.14
2023-06-19T03:43:55.327Z,84.27
2023-06-19T03:46:21.771Z,84.41
2023-06-19T03:48:48.257Z,84.55
2023-06-19T03:51:14.782Z,84.63
2023-06-19T03:53:41.201Z,84.89
2023-06-19T03:56:07.751Z,85.11
2023-06-19T03:58:34.172Z,85.41
2023-06-19T04:01:00.617Z,85.62
2023-06-19T04:03:27.230Z,85.81
2023-06-19T04:05:53.574Z,85.87
2023-06-19T04:08:20.000Z,86.02
2023-06-19T04:10:46.556Z,86.01
2023-06-19T04:13:13.105Z,86.27
2023-06-19T04:15:39.649Z,86.44
2023-06-19T04:18:06.246Z,86.59
2023-06-19T04:20:32.595Z,86.73
2023-06-19T04:22:59.148Z,86.96
2023-06-19T04:25:25.550Z,87.06
2023-06-19T04:27:52.095Z,87.05
2023-06-19T04:30:18.629Z,86.90
2023-06-19T04:32:45.282Z,86.79
2023-06-19T04:35:11.649Z,86.77
2023-06-19T04:37:38.137Z,86.80
2023-06-19T04:40:04.558Z,86.79
2023-06-19T04:42:30.986Z,86.79
2023-06-19T04:44:57.534Z,86.80
2023-06-19T04:47:24.381Z,86.59
2023-06-19T04:49:50.400Z,92.20
2023-06-19T04:52:16.937Z,97.30
2023-06-19T04:54:43.387Z,98.09
2023-06-19T04:57:09.892Z,95.70
2023-06-19T04:59:36.375Z,92.35
2023-06-19T05:02:02.760Z,90.23
2023-06-19T05:04:29.377Z,88.81
2023-06-19T05:06:55.847Z,87.84
2023-06-19T05:09:22.388Z,86.72
2023-06-19T05:11:48.881Z,86.29
2023-06-19T05:14:15.299Z,85.78
2023-06-19T05:16:41.883Z,84.92
2023-06-19T05:19:08.235Z,84.06
2023-06-19T05:21:34.776Z,82.87
2023-06-19T05:24:01.299Z,82.06
2023-06-19T05:26:27.882Z,80.95
2023-06-19T05:28:54.256Z,79.89
2023-06-19T05:31:20.681Z,79.11
2023-06-19T05:33:47.113Z,78.39
2023-06-19T05:36:13.664Z,77.42
2023-06-19T05:38:40.081Z,76.92
2023-06-19T05:41:06.529Z,76.26
2023-06-19T05:43:33.023Z,75.50
2023-06-19T05:45:59.568Z,74.83
2023-06-19T05:48:25.978Z,74.16
2023-06-19T05:50:52.380Z,74.14
2023-06-19T05:53:18.903Z,74.22
2023-06-19T05:55:45.314Z,73.47
2023-06-19T05:58:11.865Z,72.52
2023-06-19T06:00:38.347Z,71.62
2023-06-19T06:03:04.857Z,70.57
2023-06-19T06:05:31.286Z,69.73
2023-06-19T06:07:57.776Z,69.13
2023-06-19T06:10:24.459Z,68.97
2023-06-19T06:12:50.706Z,68.05
2023-06-19T06:15:17.224Z,67.48
2023-06-19T06:17:43.731Z,66.73
2023-06-19T06:20:10.106Z,66.53
2023-06-19T06:22:36.621Z,66.09
2023-06-19T06:25:03.117Z,65.67
2023-06-19T06:27:29.780Z,65.35
2023-06-19T06:29:56.311Z,65.08
2023-06-19T06:32:22.871Z,64.43
2023-06-19T06:34:49.286Z,64.26
2023-06-19T06:37:15.804Z,64.12
2023-06-19T06:39:42.229Z,63.44
2023-06-19T06:42:08.640Z,63.32
2023-06-19T06:44:35.091Z,62.60
2023-06-19T06:47:01.536Z,62.06
2023-06-19T06:49:28.000Z,61.36
2023-06-19T06:51:56.835Z,60.97
2023-06-19T06:54:20.830Z,60.53
2023-06-19T06:56:47.300Z,59.82
2023-06-19T06:59:13.726Z,59.67
2023-06-19T07:01:40.159Z,61.90
2023-06-19T07:04:06.577Z,61.47
2023-06-19T07:06:33.122Z,60.96
2023-06-19T07:08:59.841Z,59.78
2023-06-19T07:11:26.268Z,58.45
2023-06-19T07:13:52.822Z,58.09
2023-06-19T07:16:19.829Z,57.23
2023-06-19T07:18:46.187Z,57.08
2023-06-19T07:21:12.755Z,56.59
2023-06-19T07:23:39.177Z,55.84
2023-06-19T07:26:05.705Z,55.98
2023-06-19T07:28:32.142Z,55.36
2023-06-19T07:30:58.560Z,55.75
2023-06-19T07:33:24.984Z,55.48
2023-06-19T07:35:51.426Z,54.96
2023-06-19T07:38:17.829Z,54.44
2023-06-19T07:40:44.307Z,53.94
2023-06-19T07:43:10.844Z,53.53
2023-06-19T07:45:37.404Z,53.29
2023-06-19T07:48:03.904Z,53.23
2023-06-19T07:50:30.621Z,53.20
2023-06-19T07:52:56.912Z,52.90
2023-06-19T07:55:23.328Z,52.84
2023-06-19T07:57:49.862Z,52.49
2023-06-19T08:00:16.277Z,51.89
2023-06-19T08:02:42.827Z,51.74
2023-06-19T08:05:09.219Z,51.37
2023-06-19T08:07:35.639Z,50.18
2023-06-19T08:10:12.337Z,50.69
2023-06-19T08:12:28.552Z,50.55
2023-06-19T08:14:55.088Z,50.67
2023-06-19T08:17:21.727Z,50.66
2023-06-19T08:19:48.067Z,50.38
2023-06-19T08:22:14.506Z,49.14
2023-06-19T08:24:40.981Z,47.85
2023-06-19T08:27:07.458Z,47.53
2023-06-19T08:29:33.995Z,47.41
2023-06-19T08:32:00.429Z,48.16
2023-06-19T08:34:26.944Z,47.46
2023-06-19T08:36:53.382Z,46.98
2023-06-19T08:39:19.972Z,47.76
2023-06-19T08:41:46.368Z,47.41
2023-06-19T08:44:12.817Z,46.74
2023-06-19T08:46:39.386Z,46.13
2023-06-19T08:49:05.870Z,46.50
2023-06-19T08:51:32.261Z,47.15
2023-06-19T08:53:58.715Z,46.55
2023-06-19T08:56:25.158Z,46.65
2023-06-19T08:58:51.584Z,46.30
2023-06-19T09:01:18.037Z,45.89
2023-06-19T09:03:44.523Z,45.79
2023-06-19T09:06:11.012Z,45.79
2023-06-19T09:08:37.374Z,46.75
2023-06-19T09:11:03.877Z,47.09
2023-06-19T09:13:30.607Z,46.28
2023-06-19T09:15:57.085Z,47.34
2023-06-19T09:18:23.579Z,46.70
2023-06-19T09:20:50.018Z,46.44
2023-06-19T09:23:16.497Z,44.55
2023-06-19T09:25:42.904Z,44.18
2023-06-19T09:28:09.499Z,43.52
2023-06-19T09:30:35.871Z,43.14
2023-06-19T09:33:02.460Z,42.73
2023-06-19T09:35:28.914Z,42.39
2023-06-19T09:37:55.336Z,42.05
2023-06-19T09:40:22.219Z,41.35
2023-06-19T09:42:48.299Z,41.30
2023-06-19T09:45:14.800Z,41.97
2023-06-19T09:47:41.688Z,41.11
2023-06-19T09:50:08.205Z,41.15
2023-06-19T09:52:34.664Z,40.41
2023-06-19T09:55:01.121Z,40.53
2023-06-19T09:57:27.629Z,40.39
2023-06-19T09:59:54.053Z,39.90
2023-06-19T10:02:20.693Z,40.36
2023-06-19T10:04:47.054Z,39.96
2023-06-19T10:07:13.523Z,39.82
2023-06-19T10:09:39.938Z,39.95
2023-06-19T10:12:06.398Z,40.19
2023-06-19T10:14:32.861Z,39.79
2023-06-19T10:16:59.349Z,39.20
2023-06-19T10:19:25.837Z,39.78
2023-06-19T10:21:52.244Z,39.41
2023-06-19T10:24:18.874Z,39.30
2023-06-19T10:26:45.341Z,39.08
2023-06-19T10:29:11.879Z,38.80
2023-06-19T10:31:38.429Z,39.18
2023-06-19T10:34:04.933Z,38.95
2023-06-19T10:36:31.379Z,38.73
2023-06-19T10:38:57.901Z,39.10
2023-06-19T10:41:24.305Z,38.89
2023-06-19T10:43:52.824Z,38.37
2023-06-19T10:46:19.409Z,39.02
2023-06-19T10:48:45.903Z,39.25
2023-06-19T10:51:12.367Z,39.34
2023-06-19T10:53:38.868Z,38.96
2023-06-19T10:56:05.292Z,39.40
2023-06-19T10:58:31.845Z,39.57
2023-06-19T11:00:58.310Z,39.11
2023-06-19T11:03:24.949Z,39.15
2023-06-19T11:05:51.258Z,38.87
2023-06-19T11:08:17.678Z,39.23
2023-06-19T11:10:44.090Z,39.29
2023-06-19T11:13:10.630Z,39.35
2023-06-19T11:15:37.198Z,39.20
2023-06-19T11:18:03.759Z,39.54
2023-06-19T11:20:30.338Z,39.25
2023-06-19T11:22:56.781Z,39.19
2023-06-19T11:25:23.315Z,40.11
2023-06-19T11:27:49.854Z,39.98
2023-06-19T11:30:16.384Z,40.41
2023-06-19T11:32:42.894Z,41.11
2023-06-19T11:35:09.244Z,40.83
2023-06-19T11:37:35.790Z,40.42
2023-06-19T11:40:02.210Z,40.55
2023-06-19T11:42:28.647Z,40.43
2023-06-19T11:44:55.087Z,40.92
2023-06-19T11:47:21.644Z,40.99
2023-06-19T11:49:48.165Z,41.60
2023-06-19T11:52:14.592Z,41.28
2023-06-19T11:54:41.019Z,41.40
2023-06-19T11:57:07.452Z,41.92
2023-06-19T11:59:33.938Z,41.41
2023-06-19T12:02:00.467Z,41.41
2023-06-19T12:04:27.006Z,41.71
2023-06-19T12:06:53.308Z,41.76
2023-06-19T12:09:19.832Z,41.71
2023-06-19T12:11:46.250Z,41.83
2023-06-19T12:14:12.690Z,41.98
2023-06-19T12:16:39.162Z,42.11
2023-06-19T12:19:06.603Z,42.52
2023-06-19T12:21:37.794Z,42.68
2023-06-19T12:23:59.604Z,43.00
2023-06-19T12:26:26.132Z,42.63
2023-06-19T12:28:54.270Z,42.53
2023-06-19T12:31:19.150Z,42.81
2023-06-19T12:33:45.582Z,42.65
2023-06-19T12:36:12.095Z,42.73
2023-06-19T12:38:38.568Z,42.67
2023-06-19T12:41:05.093Z,42.72
2023-06-19T12:43:31.547Z,43.17
2023-06-19T12:45:58.072Z,43.08
2023-06-19T12:48:24.655Z,43.09
2023-06-19T12:50:51.127Z,43.14
2023-06-19T12:53:17.535Z,43.07
2023-06-19T12:56:00.101Z,42.88
2023-06-19T12:58:10.638Z,42.86
2023-06-19T13:00:37.055Z,43.01
2023-06-19T13:03:03.646Z,42.88
2023-06-19T13:05:30.138Z,42.73
2023-06-19T13:07:56.680Z,42.73
2023-06-19T13:10:23.394Z,42.71
2023-06-19T13:12:49.630Z,42.52
2023-06-19T13:15:16.070Z,42.86
2023-06-19T13:17:42.633Z,42.50
2023-06-19T13:20:09.213Z,42.79
2023-06-19T13:22:35.585Z,42.61
2023-06-19T13:25:02.133Z,42.48
2023-06-19T13:27:28.712Z,42.54
2023-06-19T13:29:55.181Z,42.59
2023-06-19T13:32:21.745Z,42.33
2023-06-19T13:34:48.388Z,42.23
2023-06-19T13:37:14.886Z,42.28
2023-06-19T13:39:41.421Z,42.21
2023-06-19T13:42:07.941Z,42.09
2023-06-19T13:44:34.406Z,42.28
2023-06-19T13:47:00.932Z,42.21
2023-06-19T13:49:27.357Z,41.64
2023-06-19T13:51:53.917Z,41.92
2023-06-19T13:54:20.427Z,41.84
2023-06-19T13:56:46.865Z,41.68
2023-06-19T13:59:13.310Z,41.45
2023-06-19T14:01:39.921Z,41.63
2023-06-19T14:04:06.268Z,41.55
2023-06-19T14:06:32.715Z,41.65
2023-06-19T14:08:59.354Z,41.75
2023-06-19T14:11:25.874Z,41.68
2023-06-19T14:13:52.421Z,41.88
2023-06-19T14:16:18.882Z,41.79
2023-06-19T14:18:45.387Z,41.72
2023-06-19T14:21:11.811Z,42.20
2023-06-19T14:23:38.247Z,43.02
2023-06-19T14:26:04.800Z,42.62
2023-06-19T14:28:31.367Z,43.47
2023-06-19T14:30:57.745Z,43.88
2023-06-19T14:33:24.310Z,44.02
2023-06-19T14:35:52.993Z,44.21
2023-06-19T14:38:17.363Z,44.30
2023-06-19T14:40:43.785Z,44.19
2023-06-19T14:43:10.200Z,44.10
2023-06-19T14:45:36.644Z,43.99
2023-06-19T14:48:03.273Z,44.22
2023-06-19T14:50:29.738Z,44.41
2023-06-19T14:52:56.257Z,44.02
2023-06-19T14:55:22.806Z,44.58
2023-06-19T14:57:49.223Z,44.44
2023-06-19T15:00:15.767Z,44.60
2023-06-19T15:02:42.521Z,44.61
2023-06-19T15:05:08.801Z,44.57
2023-06-19T15:07:35.223Z,45.95
2023-06-19T15:10:01.737Z,46.13
2023-06-19T15:12:28.105Z,45.82
2023-06-19T15:14:54.577Z,45.54
2023-06-19T15:17:21.003Z,46.26
2023-06-19T15:19:47.539Z,46.21
2023-06-19T15:22:13.981Z,46.01
2023-06-19T15:24:40.606Z,46.45
2023-06-19T15:27:06.958Z,46.23
2023-06-19T15:29:33.370Z,46.12
2023-06-19T15:31:59.805Z,46.87
2023-06-19T15:34:26.349Z,46.65
2023-06-19T15:36:52.908Z,46.50
2023-06-19T15:39:19.442Z,45.91
2023-06-19T15:41:45.949Z,46.19
2023-06-19T15:44:12.406Z,45.82
2023-06-19T15:46:39.312Z,46.04
2023-06-19T15:49:06.063Z,46.05
2023-06-19T15:51:32.659Z,46.16
2023-06-19T15:53:59.080Z,46.38
2023-06-19T15:56:25.501Z,46.65
2023-06-19T15:58:52.007Z,46.81
2023-06-19T16:01:20.917Z,46.87
2023-06-19T16:03:49.704Z,46.90
2023-06-19T16:06:16.018Z,47.19
2023-06-19T16:08:42.558Z,47.17
2023-06-19T16:11:12.043Z,47.37
2023-06-19T16:13:39.013Z,47.08
2023-06-19T16:16:05.979Z,46.92
2023-06-19T16:18:33.454Z,46.90
2023-06-19T16:21:00.363Z,46.72
2023-06-19T16:23:26.897Z,46.61
2023-06-19T16:25:59.350Z,46.38
2023-06-19T16:28:26.226Z,46.43
2023-06-19T16:30:52.774Z,46.40
2023-06-19T16:33:20.325Z,46.03
2023-06-19T16:35:46.929Z,46.14
2023-06-19T16:38:16.595Z,45.81
2023-06-19T16:40:43.123Z,45.90
2023-06-19T16:43:11.942Z,45.78
2023-06-19T16:45:38.408Z,45.48
2023-06-19T16:48:04.905Z,45.72
2023-06-19T16:50:31.285Z,45.68
2023-06-19T16:52:57.797Z,45.63
2023-06-19T16:55:24.347Z,45.84
2023-06-19T16:57:50.795Z,46.21
2023-06-19T17:00:17.446Z,46.48
2023-06-19T17:02:44.010Z,46.74
2023-06-19T17:05:10.372Z,46.98
2023-06-19T17:07:36.920Z,46.99
2023-06-19T17:10:03.484Z,47.02
2023-06-19T17:12:29.996Z,47.06
2023-06-19T17:14:58.737Z,47.24
2023-06-19T17:17:25.227Z,47.20
2023-06-19T17:19:54.938Z,47.63
2023-06-19T17:22:24.223Z,47.68
2023-06-19T17:24:52.836Z,47.77
2023-06-19T17:27:19.335Z,48.17
2023-06-19T17:29:46.299Z,48.47
2023-06-19T17:32:14.937Z,48.90
2023-06-19T17:34:42.363Z,49.14
2023-06-19T17:37:28.069Z,50.22
2023-06-19T17:39:54.970Z,50.10
2023-06-19T17:42:21.488Z,50.35
2023-06-19T17:44:50.402Z,51.44
2023-06-19T17:47:16.930Z,52.28
2023-06-19T17:49:44.429Z,52.47
2023-06-19T17:52:10.811Z,52.71
2023-06-19T17:54:37.332Z,52.28
2023-06-19T17:57:04.086Z,53.56
2023-06-19T17:59:30.619Z,52.74
2023-06-19T18:01:57.087Z,53.99
2023-06-19T18:04:23.477Z,54.59
2023-06-19T18:06:49.894Z,53.74
2023-06-19T18:09:16.310Z,53.98
2023-06-19T18:11:42.892Z,53.92
2023-06-19T18:14:09.305Z,55.55
2023-06-19T18:16:38.413Z,54.27
2023-06-19T18:19:02.380Z,53.59
2023-06-19T18:21:28.813Z,53.41
2023-06-19T18:23:55.298Z,53.12
2023-06-19T18:26:21.795Z,53.51
2023-06-19T18:28:48.218Z,55.38
2023-06-19T18:31:14.763Z,55.79
2023-06-19T18:33:41.288Z,55.99
2023-06-19T18:36:07.719Z,56.18
2023-06-19T18:38:34.182Z,55.35
2023-06-19T18:41:00.733Z,56.97
2023-06-19T18:43:27.138Z,57.04
2023-06-19T18:45:53.741Z,57.52
2023-06-19T18:48:20.113Z,57.20
2023-06-19T18:50:46.638Z,56.80
2023-06-19T18:53:13.157Z,56.72
2023-06-19T18:55:41.211Z,56.42
2023-06-19T18:58:06.244Z,56.54
2023-06-19T19:00:32.735Z,56.55
2023-06-19T19:02:59.256Z,57.67
2023-06-19T19:05:25.575Z,58.04
2023-06-19T19:07:52.092Z,57.30
2023-06-19T19:10:18.615Z,57.34
2023-06-19T19:12:45.229Z,58.09
2023-06-19T19:15:11.644Z,57.60
2023-06-19T19:17:38.288Z,58.42
2023-06-19T19:20:04.821Z,58.64
2023-06-19T19:22:31.198Z,58.12
2023-06-19T19:24:57.665Z,58.33
2023-06-19T19:27:24.057Z,58.87
2023-06-19T19:29:50.616Z,58.69
2023-06-19T19:32:17.029Z,59.26
2023-06-19T19:34:43.556Z,59.21
2023-06-19T19:37:10.084Z,59.34
2023-06-19T19:39:36.632Z,59.41
2023-06-19T19:42:03.034Z,59.44
2023-06-19T19:44:29.596Z,59.72
2023-06-19T19:46:56.334Z,59.85
2023-06-19T19:49:22.873Z,60.11
2023-06-19T19:51:49.388Z,60.30
2023-06-19T19:54:15.804Z,60.36
2023-06-19T19:56:42.282Z,60.53
2023-06-19T19:59:08.807Z,60.66
2023-06-19T20:01:35.318Z,60.56
2023-06-19T20:04:02.007Z,60.78
2023-06-19T20:06:28.244Z,60.77
2023-06-19T20:08:54.745Z,60.76
2023-06-19T20:11:21.280Z,60.82
2023-06-19T20:13:47.770Z,60.90
2023-06-19T20:16:14.299Z,61.06
2023-06-19T20:18:40.885Z,61.09
2023-06-19T20:21:07.426Z,61.24
2023-06-19T20:23:33.862Z,61.41
2023-06-19T20:26:00.510Z,61.69
2023-06-19T20:28:27.216Z,61.62
2023-06-19T20:30:53.578Z,61.66
2023-06-19T20:33:20.011Z,61.67
2023-06-19T20:35:46.424Z,61.74
2023-06-19T20:38:12.850Z,61.77
2023-06-19T20:40:39.264Z,61.48
2023-06-19T20:43:05.937Z,61.49
2023-06-19T20:45:32.473Z,61.36
2023-06-19T20:47:59.064Z,61.30
2023-06-19T20:50:25.812Z,61.30
2023-06-19T20:52:52.194Z,61.25
2023-06-19T20:55:18.713Z,61.26
2023-06-19T20:57:45.135Z,61.51
2023-06-19T21:00:11.595Z,61.64
2023-06-19T21:02:38.076Z,61.94
2023-06-19T21:05:04.433Z,62.04
2023-06-19T21:07:31.139Z,61.89
2023-06-19T21:09:57.612Z,62.03
2023-06-19T21:12:24.019Z,62.04
2023-06-19T21:14:51.024Z,62.16
2023-06-19T21:17:16.900Z,62.13
2023-06-19T21:19:43.456Z,62.03
2023-06-19T21:22:09.998Z,62.07
2023-06-19T21:24:36.629Z,62.15
2023-06-19T21:27:03.058Z,62.45
2023-06-19T21:29:29.456Z,62.73
2023-06-19T21:31:55.917Z,62.93
2023-06-19T21:34:22.486Z,63.25
2023-06-19T21:36:48.984Z,63.33
2023-06-19T21:39:15.473Z,63.36
2023-06-19T21:41:41.961Z,63.46
2023-06-19T21:44:08.594Z,63.61
2023-06-19T21:46:35.182Z,63.58
2023-06-19T21:49:01.675Z,63.81
2023-06-19T21:51:28.109Z,64.11
2023-06-19T21:53:54.645Z,64.21
2023-06-19T21:56:21.078Z,64.43
2023-06-19T21:58:47.612Z,64.61
2023-06-19T22:01:14.070Z,64.83
2023-06-19T22:03:40.725Z,64.98
2023-06-19T22:06:07.118Z,65.12
2023-06-19T22:08:42.198Z,65.35
2023-06-19T22:11:00.296Z,65.59
2023-06-19T22:13:26.723Z,65.87
2023-06-19T22:15:53.331Z,65.97
2023-06-19T22:18:19.697Z,65.92
2023-06-19T22:20:46.117Z,66.04
2023-06-19T22:23:12.546Z,66.17
2023-06-19T22:25:39.108Z,66.26
2023-06-19T22:28:05.645Z,66.53
2023-06-19T22:30:32.034Z,66.71
2023-06-19T22:32:58.514Z,66.76
2023-06-19T22:35:25.078Z,66.93
2023-06-19T22:37:51.468Z,66.95
2023-06-19T22:40:18.001Z,67.15
2023-06-19T22:42:44.474Z,67.40
2023-06-19T22:45:11.104Z,67.59
2023-06-19T22:47:37.509Z,67.85
2023-06-19T22:50:04.133Z,67.77
2023-06-19T22:52:30.787Z,67.82
2023-06-19T22:54:57.205Z,67.81
2023-06-19T22:57:23.735Z,68.00
2023-06-19T22:59:50.289Z,67.82
2023-06-19T23:02:16.731Z,67.92
2023-06-19T23:04:43.162Z,67.97
2023-06-19T23:07:09.577Z,68.24
2023-06-19T23:09:36.132Z,68.28
2023-06-19T23:12:02.639Z,68.29
2023-06-19T23:14:29.086Z,68.35
2023-06-19T23:16:55.510Z,68.43
2023-06-19T23:19:22.069Z,68.64
2023-06-19T23:21:48.456Z,69.02
2023-06-19T23:24:14.986Z,69.04
2023-06-19T23:26:41.456Z,69.10
2023-06-19T23:29:07.998Z,69.02
2023-06-19T23:31:34.398Z,69.16
2023-06-19T23:34:00.888Z,69.30
2023-06-19T23:36:27.403Z,69.56
2023-06-19T23:38:53.819Z,69.79
2023-06-19T23:41:20.366Z,69.79
2023-06-19T23:43:46.790Z,70.16
2023-06-19T23:46:13.258Z,70.20
2023-06-19T23:48:39.770Z,70.35
2023-06-19T23:51:06.208Z,70.45
2023-06-19T23:53:32.732Z,70.42
2023-06-19T23:55:59.270Z,70.45
2023-06-19T23:58:25.694Z,70.47
